Jungfraujoch, Switzerland
Current Conditions -  °F | °C
As of 7:50 PM on Monday 20 Oct 2014 (Local Time) from LSMM Reporting Station
Rain Showers Rain Showers  
Wind Chill: 57°   Ceiling: 10000
Heat Index: 57°   Visibility: 6mi
Dew Point: 54°   Wind: 2mph
Humidity: 88%   Direction: NA
Pressure: 30.06"   Gusts: NA
Location:  46.55°N, 7.98°E
Report Text: LSMM 201750Z VRB02KT 9999 -SHRA OVC100 14/12 Q1018 RMK WHT
Loading
Personal Weather Stations






























Interactive Weather Map
Tropical Storm Tracking
New forecast layout! Learn more

10-Day Weather Forecast

Advertisements
Track Severe Weather on mobile